createdAt,value
2022-09-18T00:00:03.348Z,9.95
2022-09-18T00:02:51.594Z,18.33
2022-09-18T00:05:40.557Z,8.40
2022-09-18T00:08:28.709Z,20.13
2022-09-18T00:11:17.381Z,7.82
2022-09-18T00:14:07.750Z,13.75
2022-09-18T00:16:57.257Z,6.70
2022-09-18T00:19:45.458Z,12.90
2022-09-18T00:22:34.479Z,9.80
2022-09-18T00:25:22.680Z,12.20
2022-09-18T00:28:10.866Z,13.45
2022-09-18T00:31:05.519Z,8.60
2022-09-18T00:33:55.296Z,7.78
2022-09-18T00:36:43.886Z,14.20
2022-09-18T00:39:32.047Z,9.15
2022-09-18T00:42:21.589Z,11.40
2022-09-18T00:45:10.869Z,11.23
2022-09-18T00:47:59.081Z,14.68
2022-09-18T00:50:48.949Z,7.57
2022-09-18T00:53:39.486Z,11.65
2022-09-18T00:56:28.818Z,17.75
2022-09-18T00:59:23.321Z,15.68
2022-09-18T01:02:12.270Z,8.23
2022-09-18T01:05:00.581Z,11.63
2022-09-18T01:08:07.645Z,16.80
2022-09-18T01:11:28.784Z,6.13
2022-09-18T01:14:29.425Z,16.83
2022-09-18T01:17:26.252Z,13.98
2022-09-18T01:20:47.008Z,7.82
2022-09-18T01:24:03.046Z,10.52
2022-09-18T01:26:57.572Z,5.90
2022-09-18T01:29:54.419Z,12.13
2022-09-18T01:32:48.478Z,10.57
2022-09-18T01:35:42.769Z,13.00
2022-09-18T01:38:36.041Z,11.88
2022-09-18T01:41:26.672Z,7.70
2022-09-18T01:44:18.272Z,12.15
2022-09-18T01:47:12.209Z,8.48
2022-09-18T01:50:02.668Z,8.93
2022-09-18T01:52:56.207Z,7.25
2022-09-18T01:55:50.075Z,12.23
2022-09-18T01:58:38.427Z,14.07
2022-09-18T02:01:31.212Z,9.00
2022-09-18T02:04:26.495Z,8.07
2022-09-18T02:07:20.446Z,6.68
2022-09-18T02:10:09.271Z,8.20
2022-09-18T02:12:58.211Z,13.13
2022-09-18T02:15:47.782Z,7.53
2022-09-18T02:18:42.050Z,9.63
2022-09-18T02:21:33.497Z,12.60
2022-09-18T02:24:25.517Z,16.15
2022-09-18T02:27:16.419Z,15.65
2022-09-18T02:30:07.579Z,12.18
2022-09-18T02:35:50.693Z,11.63
2022-09-18T02:38:50.217Z,9.35
2022-09-18T02:41:45.405Z,11.40
2022-09-18T02:44:43.482Z,10.52
2022-09-18T02:47:43.921Z,9.60
2022-09-18T02:50:40.211Z,9.02
2022-09-18T02:53:33.160Z,10.82
2022-09-18T02:56:32.579Z,5.45
2022-09-18T02:59:26.152Z,10.27
2022-09-18T03:02:14.568Z,9.93
2022-09-18T03:05:03.070Z,9.23
2022-09-18T03:07:51.313Z,7.65
2022-09-18T03:10:39.721Z,10.07
2022-09-18T03:13:29.339Z,7.28
2022-09-18T03:16:18.766Z,12.85
2022-09-18T03:19:07.033Z,9.70
2022-09-18T03:21:55.226Z,6.93
2022-09-18T03:24:43.478Z,6.70
2022-09-18T03:27:31.653Z,10.07
2022-09-18T03:30:21.204Z,11.75
2022-09-18T03:33:09.368Z,11.77
2022-09-18T03:35:57.633Z,9.95
2022-09-18T03:38:45.819Z,11.30
2022-09-18T03:41:34.008Z,10.32
2022-09-18T03:44:22.186Z,10.55
2022-09-18T03:47:11.702Z,8.82
2022-09-18T03:49:59.965Z,11.05
2022-09-18T03:52:51.672Z,8.63
2022-09-18T03:55:39.983Z,8.57
2022-09-18T03:58:28.165Z,6.55
2022-09-18T04:01:16.316Z,6.93
2022-09-18T04:04:05.879Z,7.32
2022-09-18T04:06:54.120Z,8.38
2022-09-18T04:09:42.307Z,10.68
2022-09-18T04:12:30.542Z,6.05
2022-09-18T04:15:19.174Z,8.90
2022-09-18T04:18:07.400Z,6.10
2022-09-18T04:20:56.881Z,7.47
2022-09-18T04:23:45.064Z,7.15
2022-09-18T04:26:34.391Z,12.32
2022-09-18T04:29:22.873Z,8.18
2022-09-18T04:32:11.007Z,9.32
2022-09-18T04:34:59.404Z,11.20
2022-09-18T04:37:48.892Z,8.68
2022-09-18T04:40:37.089Z,7.43
2022-09-18T04:43:26.520Z,10.82
2022-09-18T04:46:15.072Z,11.82
2022-09-18T04:49:03.413Z,6.55
2022-09-18T04:51:51.619Z,9.32
2022-09-18T04:54:41.537Z,8.88
2022-09-18T04:57:30.172Z,9.55
2022-09-18T05:00:18.838Z,8.45
2022-09-18T05:03:07.153Z,9.32
2022-09-18T05:05:56.209Z,11.93
2022-09-18T05:08:44.388Z,7.78
2022-09-18T05:11:33.892Z,8.88
2022-09-18T05:14:22.058Z,8.55
2022-09-18T05:17:10.210Z,10.88
2022-09-18T05:19:58.358Z,8.25
2022-09-18T05:22:47.317Z,10.40
2022-09-18T05:25:35.502Z,5.93
2022-09-18T05:28:25.354Z,11.45
2022-09-18T05:31:13.549Z,4.55
2022-09-18T05:34:01.746Z,4.05
2022-09-18T05:36:49.891Z,11.90
2022-09-18T05:39:38.076Z,7.82
2022-09-18T05:42:26.261Z,10.43
2022-09-18T05:45:16.017Z,5.50
2022-09-18T05:48:06.402Z,5.47
2022-09-18T05:50:54.620Z,7.22
2022-09-18T05:53:48.283Z,7.10
2022-09-18T05:56:36.509Z,2.60
2022-09-18T05:59:24.691Z,12.73
2022-09-18T06:02:14.247Z,5.88
2022-09-18T06:05:02.569Z,5.88
2022-09-18T06:07:52.530Z,8.07
2022-09-18T06:10:42.699Z,15.00
2022-09-18T06:13:30.844Z,6.45
2022-09-18T06:16:19.606Z,7.55
2022-09-18T06:19:09.153Z,9.15
2022-09-18T06:21:57.467Z,7.20
2022-09-18T06:24:45.649Z,10.07
2022-09-18T06:27:34.912Z,4.68
2022-09-18T06:30:23.097Z,11.52
2022-09-18T06:33:11.845Z,6.80
2022-09-18T06:36:01.641Z,7.70
2022-09-18T06:38:51.400Z,8.68
2022-09-18T06:41:39.573Z,7.10
2022-09-18T06:44:27.781Z,10.55
2022-09-18T06:47:15.964Z,8.57
2022-09-18T06:50:05.422Z,5.65
2022-09-18T06:52:54.949Z,6.57
2022-09-18T06:55:43.092Z,8.07
2022-09-18T06:58:31.911Z,6.28
2022-09-18T07:01:20.203Z,6.18
2022-09-18T07:04:08.584Z,6.88
2022-09-18T07:06:56.737Z,9.18
2022-09-18T07:09:46.236Z,6.43
2022-09-18T07:12:34.416Z,8.75
2022-09-18T07:15:22.549Z,12.68
2022-09-18T07:18:11.209Z,10.23
2022-09-18T07:20:59.807Z,6.90
2022-09-18T07:23:47.955Z,8.00
2022-09-18T07:26:37.480Z,9.55
2022-09-18T07:29:25.657Z,9.18
2022-09-18T07:32:13.913Z,10.18
2022-09-18T07:35:02.044Z,7.88
2022-09-18T07:37:50.286Z,6.72
2022-09-18T07:40:40.300Z,10.68
2022-09-18T07:43:29.857Z,6.72
2022-09-18T07:46:18.233Z,14.20
2022-09-18T07:49:06.395Z,10.90
2022-09-18T07:51:54.803Z,6.30
2022-09-18T07:54:43.299Z,7.78
2022-09-18T07:57:31.508Z,7.88
2022-09-18T08:00:21.169Z,6.53
2022-09-18T08:03:12.194Z,5.18
2022-09-18T08:06:00.676Z,9.35
2022-09-18T08:08:52.990Z,7.30
2022-09-18T08:11:43.034Z,7.82
2022-09-18T08:14:31.219Z,5.70
2022-09-18T08:17:20.699Z,9.25
2022-09-18T08:20:10.167Z,5.65
2022-09-18T08:22:58.575Z,6.75
2022-09-18T08:25:47.646Z,4.57
2022-09-18T08:28:35.977Z,7.95
2022-09-18T08:31:24.450Z,6.00
2022-09-18T08:34:14.089Z,6.43
2022-09-18T08:37:02.265Z,7.20
2022-09-18T08:39:50.416Z,12.68
2022-09-18T08:42:46.636Z,5.75
2022-09-18T08:45:53.673Z,7.28
2022-09-18T08:48:51.178Z,8.32
2022-09-18T08:51:46.748Z,5.65
2022-09-18T08:54:45.213Z,3.30
2022-09-18T08:57:37.949Z,6.05
2022-09-18T09:00:31.539Z,5.93
2022-09-18T09:03:27.860Z,16.02
2022-09-18T09:06:27.237Z,4.00
2022-09-18T09:09:42.735Z,10.25
2022-09-18T09:12:41.139Z,4.53
2022-09-18T09:15:36.117Z,4.40
2022-09-18T09:18:32.408Z,8.35
2022-09-18T09:21:23.700Z,8.50
2022-09-18T09:24:28.769Z,5.55
2022-09-18T09:27:22.280Z,7.15
2022-09-18T09:30:15.299Z,11.63
2022-09-18T09:33:13.227Z,6.10
2022-09-18T09:36:05.236Z,4.95
2022-09-18T09:38:58.485Z,6.82
2022-09-18T09:41:53.737Z,7.85
2022-09-18T09:44:47.333Z,8.27
2022-09-18T09:47:43.316Z,5.53
2022-09-18T09:50:41.110Z,6.18
2022-09-18T09:53:30.026Z,5.50
2022-09-18T09:56:25.933Z,7.63
2022-09-18T09:59:25.385Z,6.38
2022-09-18T10:02:41.767Z,8.55
2022-09-18T10:05:36.109Z,8.32
2022-09-18T10:08:32.106Z,5.95
2022-09-18T10:11:20.339Z,2.83
2022-09-18T10:14:13.616Z,6.78
2022-09-18T10:17:05.209Z,2.90
2022-09-18T10:19:53.760Z,2.35
2022-09-18T10:22:42.705Z,3.90
2022-09-18T10:25:42.750Z,4.40
2022-09-18T10:28:32.136Z,1.70
2022-09-18T10:31:20.434Z,7.03
2022-09-18T10:34:33.046Z,0.90
2022-09-18T10:37:40.613Z,2.85
2022-09-18T10:40:33.963Z,1.30
2022-09-18T10:43:22.578Z,3.25
2022-09-18T10:46:36.992Z,2.72
2022-09-18T10:49:31.832Z,3.70
2022-09-18T10:52:41.704Z,3.30
2022-09-18T10:55:32.400Z,3.22
2022-09-18T10:58:29.471Z,2.15
2022-09-18T11:01:19.707Z,3.25
2022-09-18T11:04:15.329Z,3.38
2022-09-18T11:07:07.966Z,1.95
2022-09-18T11:09:56.855Z,3.35
2022-09-18T11:13:27.619Z,4.68
2022-09-18T11:17:32.492Z,4.97
2022-09-18T11:20:27.004Z,3.83
2022-09-18T11:23:25.202Z,2.70
2022-09-18T11:26:20.238Z,5.05
2022-09-18T11:29:22.465Z,2.67
2022-09-18T11:32:17.543Z,3.47
2022-09-18T11:35:15.362Z,4.38
2022-09-18T11:38:07.963Z,3.72
2022-09-18T11:41:00.420Z,2.38
2022-09-18T11:44:01.329Z,3.60
2022-09-18T11:47:20.948Z,2.63
2022-09-18T11:50:15.138Z,3.40
2022-09-18T11:53:09.773Z,2.72
2022-09-18T11:56:05.969Z,2.30
2022-09-18T11:58:59.444Z,4.63
2022-09-18T12:01:53.898Z,3.40
2022-09-18T12:04:49.494Z,5.75
2022-09-18T12:07:43.424Z,3.08
2022-09-18T12:10:46.643Z,3.25
2022-09-18T12:13:45.617Z,2.63
2022-09-18T12:16:46.114Z,3.20
2022-09-18T12:19:37.941Z,3.10
2022-09-18T12:22:31.166Z,1.67
2022-09-18T12:25:22.864Z,1.95
2022-09-18T12:28:18.515Z,3.83
2022-09-18T12:31:15.363Z,1.45
2022-09-18T12:34:13.249Z,1.08
2022-09-18T12:37:15.277Z,1.20
2022-09-18T12:40:34.032Z,1.67
2022-09-18T12:43:41.447Z,1.27
2022-09-18T12:46:47.282Z,1.95
2022-09-18T12:49:58.907Z,2.67
2022-09-18T12:53:08.522Z,7.20
2022-09-18T12:56:09.637Z,5.35
2022-09-18T12:59:22.065Z,2.30
2022-09-18T13:02:31.404Z,7.22
2022-09-18T13:05:26.151Z,2.13
2022-09-18T13:08:20.881Z,5.15
2022-09-18T13:11:15.216Z,4.05
2022-09-18T13:14:10.399Z,1.33
2022-09-18T13:17:06.428Z,2.05
2022-09-18T13:20:00.975Z,1.33
2022-09-18T13:22:53.347Z,2.55
2022-09-18T13:25:43.333Z,1.90
2022-09-18T13:28:31.890Z,2.38
2022-09-18T13:31:26.426Z,3.78
2022-09-18T13:34:19.957Z,2.58
2022-09-18T13:37:17.904Z,5.40
2022-09-18T13:40:26.347Z,1.05
2022-09-18T13:43:25.370Z,2.40
2022-09-18T13:46:33.666Z,1.25
2022-09-18T13:49:30.351Z,4.18
2022-09-18T13:52:43.820Z,3.10
2022-09-18T13:55:38.247Z,1.42
2022-09-18T13:58:52.218Z,1.80
2022-09-18T14:02:04.328Z,1.25
2022-09-18T14:05:29.600Z,5.40
2022-09-18T14:08:39.036Z,1.13
2022-09-18T14:11:27.422Z,0.60
2022-09-18T14:14:22.660Z,1.98
2022-09-18T14:17:13.878Z,4.40
2022-09-18T14:20:08.285Z,1.17
2022-09-18T14:22:56.496Z,2.28
2022-09-18T14:25:48.071Z,1.20
2022-09-18T14:28:38.030Z,4.40
2022-09-18T14:31:29.501Z,1.42
2022-09-18T14:34:23.310Z,2.60
2022-09-18T14:37:24.579Z,1.77
2022-09-18T14:40:21.109Z,5.32
2022-09-18T14:43:17.818Z,2.72
2022-09-18T14:46:06.812Z,2.10
2022-09-18T14:48:56.053Z,3.13
2022-09-18T14:52:03.085Z,5.53
2022-09-18T14:54:54.670Z,3.50
2022-09-18T14:57:46.893Z,5.70
2022-09-18T15:00:39.321Z,2.67
2022-09-18T15:03:30.249Z,2.63
2022-09-18T15:06:22.235Z,1.95
2022-09-18T15:09:12.965Z,2.97
2022-09-18T15:12:03.333Z,1.70
2022-09-18T15:14:52.106Z,1.88
2022-09-18T15:17:45.879Z,3.70
2022-09-18T15:20:34.077Z,0.88
2022-09-18T15:23:27.497Z,2.30
2022-09-18T15:26:18.393Z,2.72
2022-09-18T15:29:18.461Z,0.50
2022-09-18T15:32:07.980Z,0.57
2022-09-18T15:34:59.318Z,2.92
2022-09-18T15:37:52.195Z,2.75
2022-09-18T15:40:41.050Z,3.50
2022-09-18T15:43:43.439Z,1.90
2022-09-18T15:46:34.142Z,3.55
2022-09-18T15:49:30.371Z,1.83
2022-09-18T15:52:37.990Z,0.80
2022-09-18T15:55:28.871Z,3.17
2022-09-18T15:58:27.493Z,1.67
2022-09-18T16:01:18.868Z,1.90
2022-09-18T16:04:17.003Z,1.13
2022-09-18T16:07:07.506Z,0.90
2022-09-18T16:09:57.145Z,1.10
2022-09-18T16:12:45.500Z,2.13
2022-09-18T16:15:35.631Z,1.25
2022-09-18T16:18:27.192Z,1.77
2022-09-18T16:21:15.523Z,3.35
2022-09-18T16:24:03.746Z,2.10
2022-09-18T16:26:53.413Z,7.72
2022-09-18T16:29:41.632Z,2.95
2022-09-18T16:32:29.833Z,3.60
2022-09-18T16:35:19.194Z,2.20
2022-09-18T16:38:07.489Z,1.52
2022-09-18T16:40:55.786Z,3.92
2022-09-18T16:43:45.365Z,3.70
2022-09-18T16:46:38.712Z,5.47
2022-09-18T16:49:29.342Z,1.10
2022-09-18T16:52:18.079Z,4.30
2022-09-18T16:55:07.412Z,6.57
2022-09-18T16:57:57.101Z,3.40
2022-09-18T17:00:46.880Z,1.25
2022-09-18T17:03:35.122Z,2.55
2022-09-18T17:06:23.333Z,5.28
2022-09-18T17:09:11.566Z,4.72
2022-09-18T17:12:00.372Z,6.28
2022-09-18T17:14:49.176Z,4.85
2022-09-18T17:17:38.897Z,2.97
2022-09-18T17:20:27.218Z,2.55
2022-09-18T17:23:15.698Z,4.78
2022-09-18T17:26:06.302Z,3.53
2022-09-18T17:28:54.672Z,3.13
2022-09-18T17:31:44.751Z,1.98
2022-09-18T17:34:34.793Z,5.00
2022-09-18T17:37:23.110Z,2.90
2022-09-18T17:40:11.955Z,2.67
2022-09-18T17:43:00.340Z,5.53
2022-09-18T17:45:53.707Z,4.75
2022-09-18T17:48:42.056Z,2.60
2022-09-18T17:51:31.633Z,3.45
2022-09-18T17:54:20.193Z,2.78
2022-09-18T17:57:11.597Z,2.58
2022-09-18T17:59:59.922Z,5.15
2022-09-18T18:02:48.120Z,3.90
2022-09-18T18:05:36.494Z,3.60
2022-09-18T18:08:27.387Z,4.05
2022-09-18T18:11:17.352Z,3.70
2022-09-18T18:14:06.406Z,3.78
2022-09-18T18:16:55.197Z,4.40
2022-09-18T18:19:43.623Z,3.88
2022-09-18T18:22:31.887Z,3.30
2022-09-18T18:25:23.599Z,3.90
2022-09-18T18:28:12.241Z,2.28
2022-09-18T18:31:07.031Z,2.60
2022-09-18T18:33:57.041Z,2.22
2022-09-18T18:36:45.249Z,6.60
2022-09-18T18:39:33.755Z,3.42
2022-09-18T18:42:23.320Z,3.13
2022-09-18T18:45:11.493Z,4.68
2022-09-18T18:47:59.708Z,3.42
2022-09-18T18:50:47.897Z,4.55
2022-09-18T18:53:36.245Z,5.35
2022-09-18T18:56:25.481Z,3.30
2022-09-18T18:59:17.853Z,5.93
2022-09-18T19:02:06.256Z,3.90
2022-09-18T19:05:02.766Z,3.45
2022-09-18T19:07:51.040Z,2.75
2022-09-18T19:10:39.274Z,3.80
2022-09-18T19:13:27.529Z,5.03
2022-09-18T19:16:17.527Z,5.60
2022-09-18T19:19:09.668Z,7.28
2022-09-18T19:21:59.770Z,3.67
2022-09-18T19:24:48.481Z,2.70
2022-09-18T19:27:38.659Z,3.38
2022-09-18T19:30:27.064Z,4.10
2022-09-18T19:33:18.131Z,8.40
2022-09-18T19:36:07.880Z,6.78
2022-09-18T19:38:57.906Z,7.93
2022-09-18T19:41:49.162Z,8.82
2022-09-18T19:44:40.677Z,7.35
2022-09-18T19:47:31.764Z,6.28
2022-09-18T19:53:11.803Z,4.78
2022-09-18T19:56:00.414Z,6.03
2022-09-18T19:58:51.004Z,4.25
2022-09-18T20:01:39.313Z,6.22
2022-09-18T20:04:27.550Z,4.90
2022-09-18T20:07:17.093Z,4.75
2022-09-18T20:10:06.257Z,2.65
2022-09-18T20:12:54.705Z,3.88
2022-09-18T20:15:44.757Z,2.22
2022-09-18T20:18:33.241Z,4.90
2022-09-18T20:21:21.831Z,6.13
2022-09-18T20:24:11.362Z,6.38
2022-09-18T20:26:59.879Z,5.90
2022-09-18T20:29:48.247Z,4.82
2022-09-18T20:32:36.658Z,7.40
2022-09-18T20:35:24.993Z,4.07
2022-09-18T20:38:13.188Z,9.00
2022-09-18T20:41:06.938Z,9.23
2022-09-18T20:43:55.374Z,2.60
2022-09-18T20:46:43.636Z,4.97
2022-09-18T20:49:32.140Z,9.85
2022-09-18T20:52:20.347Z,5.82
2022-09-18T20:55:09.939Z,4.07
2022-09-18T20:58:02.253Z,7.38
2022-09-18T21:00:51.193Z,4.43
2022-09-18T21:03:41.126Z,9.98
2022-09-18T21:06:32.293Z,8.15
2022-09-18T21:12:09.851Z,6.93
2022-09-18T21:15:01.379Z,3.53
2022-09-18T21:17:50.062Z,6.30
2022-09-18T21:20:38.272Z,6.30
2022-09-18T21:23:43.910Z,4.53
2022-09-18T21:26:35.612Z,9.85
2022-09-18T21:29:26.091Z,8.45
2022-09-18T21:32:15.630Z,6.80
2022-09-18T21:35:04.020Z,5.50
2022-09-18T21:37:55.106Z,6.65
2022-09-18T21:43:32.871Z,4.30
2022-09-18T21:46:22.466Z,4.40
2022-09-18T21:49:14.892Z,5.97
2022-09-18T21:52:05.058Z,8.43
2022-09-18T21:54:53.250Z,7.00
2022-09-18T21:57:41.786Z,6.78
2022-09-18T22:00:30.069Z,5.90
2022-09-18T22:03:18.356Z,9.80
2022-09-18T22:06:08.090Z,7.72
2022-09-18T22:08:58.123Z,9.40
2022-09-18T22:11:47.307Z,14.52
2022-09-18T22:14:38.322Z,7.55
2022-09-18T22:20:15.382Z,8.07
2022-09-18T22:23:05.159Z,3.72
2022-09-18T22:25:53.596Z,9.95
2022-09-18T22:28:42.366Z,8.70
2022-09-18T22:31:31.023Z,6.90
2022-09-18T22:34:21.531Z,8.23
2022-09-18T22:37:10.969Z,10.80
2022-09-18T22:40:00.590Z,8.32
2022-09-18T22:42:48.958Z,6.97
2022-09-18T22:45:37.148Z,5.88
2022-09-18T22:48:25.358Z,6.50
2022-09-18T22:51:15.091Z,5.85
2022-09-18T22:54:07.672Z,5.43
2022-09-18T22:56:57.412Z,6.40
2022-09-18T22:59:45.578Z,5.53
2022-09-18T23:02:33.874Z,7.05
2022-09-18T23:05:22.077Z,8.80
2022-09-18T23:08:11.341Z,6.60
2022-09-18T23:11:03.125Z,8.13
2022-09-18T23:13:55.489Z,9.68
2022-09-18T23:16:44.051Z,6.40
2022-09-18T23:19:34.696Z,5.72
2022-09-18T23:22:23.115Z,6.57
2022-09-18T23:25:11.571Z,10.95
2022-09-18T23:27:59.732Z,6.32
2022-09-18T23:30:49.295Z,5.78
2022-09-18T23:33:38.337Z,5.35
2022-09-18T23:36:28.849Z,7.70
2022-09-18T23:39:19.415Z,10.05
2022-09-18T23:42:08.920Z,6.63
2022-09-18T23:44:57.193Z,6.00
2022-09-18T23:47:46.755Z,7.85
2022-09-18T23:50:35.086Z,7.50
2022-09-18T23:53:24.635Z,8.02
2022-09-18T23:56:14.674Z,6.68
2022-09-18T23:59:04.734Z,9.82
